sensor_id;sensor_type;location;lat;lon;timestamp;P1;durP1;ratioP1;P2;durP2;ratioP2
53751;SDS011;41095;53.090;6.692;2023-02-21T00:01:45;18.92;;;8.32;;
53751;SDS011;41095;53.090;6.692;2023-02-21T00:04:30;14.07;;;7.72;;
53751;SDS011;41095;53.090;6.692;2023-02-21T00:07:14;14.43;;;8.02;;
53751;SDS011;41095;53.090;6.692;2023-02-21T00:09:58;15.68;;;8.20;;
53751;SDS011;41095;53.090;6.692;2023-02-21T00:12:43;16.45;;;8.25;;
53751;SDS011;41095;53.090;6.692;2023-02-21T00:15:27;11.93;;;7.63;;
53751;SDS011;41095;53.090;6.692;2023-02-21T00:18:12;15.05;;;7.57;;
53751;SDS011;41095;53.090;6.692;2023-02-21T00:20:56;13.80;;;8.38;;
53751;SDS011;41095;53.090;6.692;2023-02-21T00:23:40;13.40;;;8.02;;
53751;SDS011;41095;53.090;6.692;2023-02-21T00:26:24;19.60;;;9.00;;
53751;SDS011;41095;53.090;6.692;2023-02-21T00:29:09;13.63;;;8.27;;
53751;SDS011;41095;53.090;6.692;2023-02-21T00:31:53;15.52;;;7.40;;
53751;SDS011;41095;53.090;6.692;2023-02-21T00:34:38;14.90;;;8.43;;
53751;SDS011;41095;53.090;6.692;2023-02-21T00:37:22;12.65;;;7.07;;
53751;SDS011;41095;53.090;6.692;2023-02-21T00:40:09;12.02;;;7.88;;
53751;SDS011;41095;53.090;6.692;2023-02-21T00:42:54;12.55;;;8.52;;
53751;SDS011;41095;53.090;6.692;2023-02-21T00:45:39;16.08;;;9.00;;
53751;SDS011;41095;53.090;6.692;2023-02-21T00:48:23;10.77;;;7.97;;
53751;SDS011;41095;53.090;6.692;2023-02-21T00:51:08;17.60;;;8.27;;
53751;SDS011;41095;53.090;6.692;2023-02-21T00:53:52;15.38;;;8.10;;
53751;SDS011;41095;53.090;6.692;2023-02-21T00:56:37;14.70;;;7.80;;
53751;SDS011;41095;53.090;6.692;2023-02-21T00:59:21;17.88;;;10.15;;
53751;SDS011;41095;53.090;6.692;2023-02-21T01:02:06;15.18;;;9.93;;
53751;SDS011;41095;53.090;6.692;2023-02-21T01:04:50;12.55;;;9.02;;
53751;SDS011;41095;53.090;6.692;2023-02-21T01:07:35;20.73;;;9.50;;
53751;SDS011;41095;53.090;6.692;2023-02-21T01:10:19;13.20;;;9.35;;
53751;SDS011;41095;53.090;6.692;2023-02-21T01:13:03;12.93;;;8.93;;
53751;SDS011;41095;53.090;6.692;2023-02-21T01:15:48;19.73;;;9.55;;
53751;SDS011;41095;53.090;6.692;2023-02-21T01:18:33;13.90;;;9.20;;
53751;SDS011;41095;53.090;6.692;2023-02-21T01:21:18;18.20;;;9.57;;
53751;SDS011;41095;53.090;6.692;2023-02-21T01:24:02;17.35;;;9.18;;
53751;SDS011;41095;53.090;6.692;2023-02-21T01:26:48;22.55;;;8.57;;
53751;SDS011;41095;53.090;6.692;2023-02-21T01:29:32;18.05;;;9.82;;
53751;SDS011;41095;53.090;6.692;2023-02-21T01:32:17;21.27;;;9.63;;
53751;SDS011;41095;53.090;6.692;2023-02-21T01:35:01;18.45;;;8.75;;
53751;SDS011;41095;53.090;6.692;2023-02-21T01:37:46;14.35;;;9.27;;
53751;SDS011;41095;53.090;6.692;2023-02-21T01:40:30;14.05;;;7.88;;
53751;SDS011;41095;53.090;6.692;2023-02-21T01:43:19;12.20;;;7.43;;
53751;SDS011;41095;53.090;6.692;2023-02-21T01:46:05;14.15;;;9.20;;
53751;SDS011;41095;53.090;6.692;2023-02-21T01:49:05;16.90;;;8.95;;
53751;SDS011;41095;53.090;6.692;2023-02-21T01:51:53;12.60;;;8.60;;
53751;SDS011;41095;53.090;6.692;2023-02-21T01:54:39;14.38;;;8.90;;
53751;SDS011;41095;53.090;6.692;2023-02-21T01:57:29;17.08;;;8.77;;
53751;SDS011;41095;53.090;6.692;2023-02-21T02:00:14;15.23;;;8.93;;
53751;SDS011;41095;53.090;6.692;2023-02-21T02:03:00;15.05;;;9.32;;
53751;SDS011;41095;53.090;6.692;2023-02-21T02:05:48;18.08;;;10.48;;
53751;SDS011;41095;53.090;6.692;2023-02-21T02:08:36;13.93;;;8.30;;
53751;SDS011;41095;53.090;6.692;2023-02-21T02:14:47;16.02;;;9.15;;
53751;SDS011;41095;53.090;6.692;2023-02-21T02:20:21;14.88;;;9.68;;
53751;SDS011;41095;53.090;6.692;2023-02-21T02:36:41;16.35;;;8.75;;
53751;SDS011;41095;53.090;6.692;2023-02-21T02:39:33;14.85;;;9.15;;
53751;SDS011;41095;53.090;6.692;2023-02-21T02:42:18;12.60;;;8.40;;
53751;SDS011;41095;53.090;6.692;2023-02-21T02:44:49;13.65;;;8.50;;
53751;SDS011;41095;53.090;6.692;2023-02-21T02:47:25;15.45;;;9.30;;
53751;SDS011;41095;53.090;6.692;2023-02-21T02:49:57;14.20;;;8.45;;
53751;SDS011;41095;53.090;6.692;2023-02-21T02:52:24;14.25;;;9.20;;
53751;SDS011;41095;53.090;6.692;2023-02-21T02:58:03;13.73;;;8.48;;
53751;SDS011;41095;53.090;6.692;2023-02-21T03:00:30;15.50;;;9.02;;
53751;SDS011;41095;53.090;6.692;2023-02-21T03:11:17;14.63;;;7.90;;
53751;SDS011;41095;53.090;6.692;2023-02-21T03:16:20;13.48;;;8.77;;
53751;SDS011;41095;53.090;6.692;2023-02-21T03:18:57;16.48;;;10.02;;
53751;SDS011;41095;53.090;6.692;2023-02-21T03:21:34;17.58;;;9.90;;
53751;SDS011;41095;53.090;6.692;2023-02-21T03:24:03;16.20;;;8.95;;
53751;SDS011;41095;53.090;6.692;2023-02-21T03:26:31;14.30;;;9.57;;
53751;SDS011;41095;53.090;6.692;2023-02-21T03:29:00;17.85;;;9.52;;
53751;SDS011;41095;53.090;6.692;2023-02-21T03:31:29;19.80;;;9.80;;
53751;SDS011;41095;53.090;6.692;2023-02-21T03:34:07;18.60;;;9.18;;
53751;SDS011;41095;53.090;6.692;2023-02-21T03:36:33;16.00;;;9.10;;
53751;SDS011;41095;53.090;6.692;2023-02-21T03:39:01;15.63;;;9.88;;
53751;SDS011;41095;53.090;6.692;2023-02-21T03:41:27;13.25;;;8.57;;
53751;SDS011;41095;53.090;6.692;2023-02-21T03:43:53;13.43;;;9.43;;
53751;SDS011;41095;53.090;6.692;2023-02-21T03:46:19;16.13;;;9.55;;
53751;SDS011;41095;53.090;6.692;2023-02-21T03:48:45;17.25;;;9.20;;
53751;SDS011;41095;53.090;6.692;2023-02-21T03:51:11;13.95;;;8.82;;
53751;SDS011;41095;53.090;6.692;2023-02-21T03:53:36;17.50;;;9.55;;
53751;SDS011;41095;53.090;6.692;2023-02-21T03:56:02;14.88;;;9.15;;
53751;SDS011;41095;53.090;6.692;2023-02-21T03:58:28;15.13;;;9.20;;
53751;SDS011;41095;53.090;6.692;2023-02-21T04:00:54;13.20;;;8.13;;
53751;SDS011;41095;53.090;6.692;2023-02-21T04:03:20;13.80;;;8.85;;
53751;SDS011;41095;53.090;6.692;2023-02-21T04:05:45;15.60;;;9.52;;
53751;SDS011;41095;53.090;6.692;2023-02-21T04:08:11;17.65;;;9.25;;
53751;SDS011;41095;53.090;6.692;2023-02-21T04:10:37;13.43;;;9.95;;
53751;SDS011;41095;53.090;6.692;2023-02-21T04:13:03;14.10;;;9.25;;
53751;SDS011;41095;53.090;6.692;2023-02-21T04:15:29;16.10;;;9.77;;
53751;SDS011;41095;53.090;6.692;2023-02-21T04:17:54;17.65;;;9.65;;
53751;SDS011;41095;53.090;6.692;2023-02-21T04:20:20;15.95;;;9.20;;
53751;SDS011;41095;53.090;6.692;2023-02-21T04:22:46;14.00;;;9.02;;
53751;SDS011;41095;53.090;6.692;2023-02-21T04:25:13;14.52;;;9.43;;
53751;SDS011;41095;53.090;6.692;2023-02-21T04:27:39;21.13;;;10.98;;
53751;SDS011;41095;53.090;6.692;2023-02-21T04:30:04;14.75;;;10.00;;
53751;SDS011;41095;53.090;6.692;2023-02-21T04:32:30;17.70;;;9.82;;
53751;SDS011;41095;53.090;6.692;2023-02-21T04:34:56;16.02;;;9.32;;
53751;SDS011;41095;53.090;6.692;2023-02-21T04:37:22;14.18;;;9.77;;
53751;SDS011;41095;53.090;6.692;2023-02-21T04:39:47;19.67;;;10.35;;
53751;SDS011;41095;53.090;6.692;2023-02-21T04:42:13;17.45;;;10.77;;
53751;SDS011;41095;53.090;6.692;2023-02-21T04:44:39;18.52;;;10.85;;
53751;SDS011;41095;53.090;6.692;2023-02-21T04:47:04;20.63;;;10.43;;
53751;SDS011;41095;53.090;6.692;2023-02-21T04:49:30;17.15;;;10.57;;
53751;SDS011;41095;53.090;6.692;2023-02-21T04:51:56;17.50;;;11.00;;
53751;SDS011;41095;53.090;6.692;2023-02-21T04:54:22;19.65;;;10.57;;
53751;SDS011;41095;53.090;6.692;2023-02-21T04:56:47;19.17;;;11.48;;
53751;SDS011;41095;53.090;6.692;2023-02-21T04:59:13;20.88;;;11.45;;
53751;SDS011;41095;53.090;6.692;2023-02-21T05:01:39;16.88;;;11.93;;
53751;SDS011;41095;53.090;6.692;2023-02-21T05:04:05;18.40;;;11.27;;
53751;SDS011;41095;53.090;6.692;2023-02-21T05:06:31;16.23;;;11.60;;
53751;SDS011;41095;53.090;6.692;2023-02-21T05:08:57;16.00;;;11.10;;
53751;SDS011;41095;53.090;6.692;2023-02-21T05:11:23;19.88;;;12.35;;
53751;SDS011;41095;53.090;6.692;2023-02-21T05:13:50;20.50;;;13.10;;
53751;SDS011;41095;53.090;6.692;2023-02-21T05:16:16;17.17;;;11.38;;
53751;SDS011;41095;53.090;6.692;2023-02-21T05:18:43;22.23;;;12.73;;
53751;SDS011;41095;53.090;6.692;2023-02-21T05:21:10;20.52;;;12.23;;
53751;SDS011;41095;53.090;6.692;2023-02-21T05:23:35;20.13;;;12.07;;
53751;SDS011;41095;53.090;6.692;2023-02-21T05:26:10;18.33;;;10.60;;
53751;SDS011;41095;53.090;6.692;2023-02-21T05:28:37;17.88;;;11.57;;
53751;SDS011;41095;53.090;6.692;2023-02-21T05:31:04;20.52;;;12.20;;
53751;SDS011;41095;53.090;6.692;2023-02-21T05:33:31;16.88;;;10.60;;
53751;SDS011;41095;53.090;6.692;2023-02-21T05:35:57;18.33;;;11.50;;
53751;SDS011;41095;53.090;6.692;2023-02-21T05:38:24;18.00;;;12.07;;
53751;SDS011;41095;53.090;6.692;2023-02-21T05:40:50;21.10;;;11.95;;
53751;SDS011;41095;53.090;6.692;2023-02-21T05:43:16;18.30;;;11.55;;
53751;SDS011;41095;53.090;6.692;2023-02-21T05:45:42;18.25;;;12.50;;
53751;SDS011;41095;53.090;6.692;2023-02-21T05:48:07;17.58;;;11.85;;
53751;SDS011;41095;53.090;6.692;2023-02-21T05:50:33;21.00;;;11.35;;
53751;SDS011;41095;53.090;6.692;2023-02-21T05:52:59;16.45;;;10.80;;
53751;SDS011;41095;53.090;6.692;2023-02-21T05:55:25;19.60;;;12.05;;
53751;SDS011;41095;53.090;6.692;2023-02-21T05:57:52;22.30;;;12.10;;
53751;SDS011;41095;53.090;6.692;2023-02-21T06:00:19;19.92;;;11.60;;
53751;SDS011;41095;53.090;6.692;2023-02-21T06:02:50;18.65;;;11.85;;
53751;SDS011;41095;53.090;6.692;2023-02-21T06:05:17;17.13;;;11.68;;
53751;SDS011;41095;53.090;6.692;2023-02-21T06:07:43;20.60;;;11.90;;
53751;SDS011;41095;53.090;6.692;2023-02-21T06:10:09;18.75;;;12.30;;
53751;SDS011;41095;53.090;6.692;2023-02-21T06:12:35;21.88;;;13.45;;
53751;SDS011;41095;53.090;6.692;2023-02-21T06:15:01;18.83;;;11.20;;
53751;SDS011;41095;53.090;6.692;2023-02-21T06:17:40;21.80;;;12.23;;
53751;SDS011;41095;53.090;6.692;2023-02-21T06:20:07;22.33;;;12.52;;
53751;SDS011;41095;53.090;6.692;2023-02-21T06:22:36;18.63;;;12.55;;
53751;SDS011;41095;53.090;6.692;2023-02-21T06:25:02;22.05;;;11.98;;
53751;SDS011;41095;53.090;6.692;2023-02-21T06:27:28;17.65;;;11.85;;
53751;SDS011;41095;53.090;6.692;2023-02-21T06:29:54;18.45;;;12.93;;
53751;SDS011;41095;53.090;6.692;2023-02-21T06:32:19;17.13;;;11.07;;
53751;SDS011;41095;53.090;6.692;2023-02-21T06:34:45;22.50;;;12.95;;
53751;SDS011;41095;53.090;6.692;2023-02-21T06:37:11;22.13;;;12.43;;
53751;SDS011;41095;53.090;6.692;2023-02-21T06:39:37;22.45;;;13.48;;
53751;SDS011;41095;53.090;6.692;2023-02-21T06:42:03;18.27;;;11.63;;
53751;SDS011;41095;53.090;6.692;2023-02-21T06:44:30;18.92;;;11.63;;
53751;SDS011;41095;53.090;6.692;2023-02-21T06:46:56;16.83;;;11.65;;
53751;SDS011;41095;53.090;6.692;2023-02-21T06:49:21;22.60;;;11.73;;
53751;SDS011;41095;53.090;6.692;2023-02-21T06:51:47;18.42;;;11.70;;
53751;SDS011;41095;53.090;6.692;2023-02-21T06:54:13;19.13;;;13.07;;
53751;SDS011;41095;53.090;6.692;2023-02-21T06:56:41;19.63;;;12.07;;
53751;SDS011;41095;53.090;6.692;2023-02-21T06:59:07;20.02;;;12.82;;
53751;SDS011;41095;53.090;6.692;2023-02-21T07:01:33;21.52;;;12.43;;
53751;SDS011;41095;53.090;6.692;2023-02-21T07:03:59;17.85;;;11.38;;
53751;SDS011;41095;53.090;6.692;2023-02-21T07:06:24;22.42;;;12.57;;
53751;SDS011;41095;53.090;6.692;2023-02-21T07:08:50;19.52;;;12.68;;
53751;SDS011;41095;53.090;6.692;2023-02-21T07:11:17;25.80;;;13.40;;
53751;SDS011;41095;53.090;6.692;2023-02-21T07:13:49;20.90;;;12.80;;
53751;SDS011;41095;53.090;6.692;2023-02-21T07:16:15;22.02;;;13.57;;
53751;SDS011;41095;53.090;6.692;2023-02-21T07:18:43;20.48;;;12.45;;
53751;SDS011;41095;53.090;6.692;2023-02-21T07:21:10;22.08;;;12.32;;
53751;SDS011;41095;53.090;6.692;2023-02-21T07:23:36;22.80;;;13.02;;
53751;SDS011;41095;53.090;6.692;2023-02-21T07:26:02;20.38;;;12.70;;
53751;SDS011;41095;53.090;6.692;2023-02-21T07:28:28;23.95;;;13.40;;
53751;SDS011;41095;53.090;6.692;2023-02-21T07:30:53;24.63;;;14.60;;
53751;SDS011;41095;53.090;6.692;2023-02-21T07:33:19;23.58;;;13.35;;
53751;SDS011;41095;53.090;6.692;2023-02-21T07:35:45;24.23;;;14.00;;
53751;SDS011;41095;53.090;6.692;2023-02-21T07:38:23;24.63;;;14.57;;
53751;SDS011;41095;53.090;6.692;2023-02-21T07:40:50;14.98;;;11.15;;
53751;SDS011;41095;53.090;6.692;2023-02-21T07:43:19;23.08;;;13.43;;
53751;SDS011;41095;53.090;6.692;2023-02-21T07:45:44;21.58;;;12.57;;
53751;SDS011;41095;53.090;6.692;2023-02-21T07:48:10;21.95;;;14.25;;
53751;SDS011;41095;53.090;6.692;2023-02-21T07:50:39;22.60;;;14.63;;
53751;SDS011;41095;53.090;6.692;2023-02-21T07:53:06;24.67;;;13.88;;
53751;SDS011;41095;53.090;6.692;2023-02-21T07:55:31;20.83;;;13.00;;
53751;SDS011;41095;53.090;6.692;2023-02-21T07:57:57;21.35;;;12.80;;
53751;SDS011;41095;53.090;6.692;2023-02-21T08:00:23;19.52;;;12.20;;
53751;SDS011;41095;53.090;6.692;2023-02-21T08:02:50;22.20;;;13.20;;
53751;SDS011;41095;53.090;6.692;2023-02-21T08:05:17;20.83;;;11.98;;
53751;SDS011;41095;53.090;6.692;2023-02-21T08:07:43;22.13;;;13.23;;
53751;SDS011;41095;53.090;6.692;2023-02-21T08:10:09;18.02;;;12.45;;
53751;SDS011;41095;53.090;6.692;2023-02-21T08:12:37;19.50;;;12.95;;
53751;SDS011;41095;53.090;6.692;2023-02-21T08:15:03;17.92;;;12.50;;
53751;SDS011;41095;53.090;6.692;2023-02-21T08:17:30;23.60;;;13.05;;
53751;SDS011;41095;53.090;6.692;2023-02-21T08:19:56;24.67;;;12.05;;
53751;SDS011;41095;53.090;6.692;2023-02-21T08:22:22;22.83;;;13.52;;
53751;SDS011;41095;53.090;6.692;2023-02-21T08:24:48;19.27;;;12.02;;
53751;SDS011;41095;53.090;6.692;2023-02-21T08:27:15;19.13;;;13.82;;
53751;SDS011;41095;53.090;6.692;2023-02-21T08:29:41;18.85;;;12.60;;
53751;SDS011;41095;53.090;6.692;2023-02-21T08:32:07;30.58;;;13.60;;
53751;SDS011;41095;53.090;6.692;2023-02-21T08:34:33;23.60;;;13.95;;
53751;SDS011;41095;53.090;6.692;2023-02-21T08:36:59;20.70;;;11.98;;
53751;SDS011;41095;53.090;6.692;2023-02-21T08:39:25;18.67;;;13.50;;
53751;SDS011;41095;53.090;6.692;2023-02-21T08:41:54;19.80;;;12.68;;
53751;SDS011;41095;53.090;6.692;2023-02-21T08:44:20;25.92;;;13.93;;
53751;SDS011;41095;53.090;6.692;2023-02-21T08:46:46;22.65;;;13.30;;
53751;SDS011;41095;53.090;6.692;2023-02-21T08:49:12;18.10;;;12.50;;
53751;SDS011;41095;53.090;6.692;2023-02-21T08:51:38;23.58;;;13.98;;
53751;SDS011;41095;53.090;6.692;2023-02-21T08:54:04;20.00;;;12.90;;
53751;SDS011;41095;53.090;6.692;2023-02-21T08:56:30;21.02;;;14.40;;
53751;SDS011;41095;53.090;6.692;2023-02-21T08:58:56;20.88;;;13.25;;
53751;SDS011;41095;53.090;6.692;2023-02-21T09:01:23;25.20;;;14.52;;
53751;SDS011;41095;53.090;6.692;2023-02-21T09:03:54;22.88;;;13.93;;
53751;SDS011;41095;53.090;6.692;2023-02-21T09:06:19;25.08;;;13.73;;
53751;SDS011;41095;53.090;6.692;2023-02-21T09:08:45;20.05;;;12.93;;
53751;SDS011;41095;53.090;6.692;2023-02-21T09:11:11;21.30;;;14.43;;
53751;SDS011;41095;53.090;6.692;2023-02-21T09:13:36;22.05;;;14.02;;
53751;SDS011;41095;53.090;6.692;2023-02-21T09:16:02;24.02;;;13.40;;
53751;SDS011;41095;53.090;6.692;2023-02-21T09:18:29;22.20;;;13.95;;
53751;SDS011;41095;53.090;6.692;2023-02-21T09:20:56;18.90;;;12.50;;
53751;SDS011;41095;53.090;6.692;2023-02-21T09:23:22;17.55;;;12.10;;
53751;SDS011;41095;53.090;6.692;2023-02-21T09:25:52;22.10;;;12.65;;
53751;SDS011;41095;53.090;6.692;2023-02-21T09:28:18;21.65;;;13.25;;
53751;SDS011;41095;53.090;6.692;2023-02-21T09:30:45;22.65;;;12.43;;
53751;SDS011;41095;53.090;6.692;2023-02-21T09:33:11;18.60;;;12.35;;
53751;SDS011;41095;53.090;6.692;2023-02-21T09:35:37;23.67;;;14.73;;
53751;SDS011;41095;53.090;6.692;2023-02-21T09:38:03;18.42;;;13.45;;
53751;SDS011;41095;53.090;6.692;2023-02-21T09:43:10;19.20;;;11.85;;
53751;SDS011;41095;53.090;6.692;2023-02-21T09:45:39;22.05;;;12.57;;
53751;SDS011;41095;53.090;6.692;2023-02-21T09:48:07;20.88;;;14.27;;
53751;SDS011;41095;53.090;6.692;2023-02-21T09:50:51;17.45;;;11.18;;
53751;SDS011;41095;53.090;6.692;2023-02-21T09:53:23;19.55;;;12.45;;
53751;SDS011;41095;53.090;6.692;2023-02-21T09:55:53;22.52;;;12.73;;
53751;SDS011;41095;53.090;6.692;2023-02-21T09:58:24;22.30;;;12.80;;
53751;SDS011;41095;53.090;6.692;2023-02-21T10:00:50;20.67;;;13.30;;
53751;SDS011;41095;53.090;6.692;2023-02-21T10:03:25;19.13;;;12.45;;
53751;SDS011;41095;53.090;6.692;2023-02-21T10:06:23;19.55;;;12.15;;
53751;SDS011;41095;53.090;6.692;2023-02-21T10:12:07;19.83;;;10.57;;
53751;SDS011;41095;53.090;6.692;2023-02-21T10:14:36;22.13;;;12.50;;
53751;SDS011;41095;53.090;6.692;2023-02-21T10:17:37;19.52;;;11.65;;
53751;SDS011;41095;53.090;6.692;2023-02-21T10:20:29;16.80;;;11.32;;
53751;SDS011;41095;53.090;6.692;2023-02-21T10:23:01;20.60;;;12.57;;
53751;SDS011;41095;53.090;6.692;2023-02-21T10:25:30;18.17;;;11.50;;
53751;SDS011;41095;53.090;6.692;2023-02-21T10:27:58;22.75;;;12.35;;
53751;SDS011;41095;53.090;6.692;2023-02-21T10:30:26;17.70;;;11.52;;
53751;SDS011;41095;53.090;6.692;2023-02-21T10:33:00;15.38;;;11.00;;
53751;SDS011;41095;53.090;6.692;2023-02-21T10:35:33;22.52;;;12.80;;
53751;SDS011;41095;53.090;6.692;2023-02-21T10:38:02;20.85;;;11.10;;
53751;SDS011;41095;53.090;6.692;2023-02-21T10:40:33;16.50;;;11.40;;
53751;SDS011;41095;53.090;6.692;2023-02-21T10:48:10;18.77;;;10.38;;
53751;SDS011;41095;53.090;6.692;2023-02-21T10:51:27;16.65;;;11.20;;
53751;SDS011;41095;53.090;6.692;2023-02-21T10:53:24;16.50;;;10.80;;
53751;SDS011;41095;53.090;6.692;2023-02-21T10:58:32;20.25;;;11.07;;
53751;SDS011;41095;53.090;6.692;2023-02-21T11:12:02;16.70;;;10.35;;
53751;SDS011;41095;53.090;6.692;2023-02-21T11:17:28;17.20;;;10.70;;
53751;SDS011;41095;53.090;6.692;2023-02-21T11:22:45;15.30;;;10.23;;
53751;SDS011;41095;53.090;6.692;2023-02-21T11:25:28;18.25;;;11.57;;
53751;SDS011;41095;53.090;6.692;2023-02-21T11:30:43;18.52;;;10.25;;
53751;SDS011;41095;53.090;6.692;2023-02-21T11:33:27;16.63;;;10.65;;
53751;SDS011;41095;53.090;6.692;2023-02-21T11:36:06;13.73;;;10.40;;
53751;SDS011;41095;53.090;6.692;2023-02-21T11:38:41;16.27;;;10.90;;
53751;SDS011;41095;53.090;6.692;2023-02-21T11:43:46;17.15;;;10.77;;
53751;SDS011;41095;53.090;6.692;2023-02-21T11:51:53;11.35;;;9.25;;
53751;SDS011;41095;53.090;6.692;2023-02-21T11:54:24;16.50;;;10.52;;
53751;SDS011;41095;53.090;6.692;2023-02-21T11:57:14;18.63;;;11.57;;
53751;SDS011;41095;53.090;6.692;2023-02-21T11:59:57;18.27;;;12.05;;
53751;SDS011;41095;53.090;6.692;2023-02-21T12:25:28;17.70;;;10.82;;
53751;SDS011;41095;53.090;6.692;2023-02-21T12:47:14;18.15;;;10.80;;
53751;SDS011;41095;53.090;6.692;2023-02-21T12:50:02;16.50;;;10.18;;
53751;SDS011;41095;53.090;6.692;2023-02-21T12:55:31;17.42;;;10.18;;
53751;SDS011;41095;53.090;6.692;2023-02-21T12:58:16;19.10;;;11.00;;
53751;SDS011;41095;53.090;6.692;2023-02-21T13:06:57;20.40;;;11.52;;
53751;SDS011;41095;53.090;6.692;2023-02-21T13:15:29;18.83;;;11.13;;
53751;SDS011;41095;53.090;6.692;2023-02-21T13:20:25;16.30;;;10.57;;
53751;SDS011;41095;53.090;6.692;2023-02-21T13:28:16;20.55;;;12.93;;
53751;SDS011;41095;53.090;6.692;2023-02-21T13:30:51;18.15;;;11.27;;
53751;SDS011;41095;53.090;6.692;2023-02-21T13:33:34;17.42;;;12.25;;
53751;SDS011;41095;53.090;6.692;2023-02-21T13:36:48;19.42;;;12.25;;
53751;SDS011;41095;53.090;6.692;2023-02-21T13:39:26;16.98;;;12.48;;
53751;SDS011;41095;53.090;6.692;2023-02-21T13:42:10;16.20;;;10.90;;
53751;SDS011;41095;53.090;6.692;2023-02-21T13:44:45;20.92;;;11.38;;
53751;SDS011;41095;53.090;6.692;2023-02-21T13:47:21;20.17;;;13.52;;
53751;SDS011;41095;53.090;6.692;2023-02-21T14:08:27;19.70;;;13.65;;
53751;SDS011;41095;53.090;6.692;2023-02-21T14:13:31;16.88;;;11.90;;
53751;SDS011;41095;53.090;6.692;2023-02-21T14:21:03;16.27;;;11.52;;
53751;SDS011;41095;53.090;6.692;2023-02-21T14:23:39;17.52;;;11.32;;
53751;SDS011;41095;53.090;6.692;2023-02-21T14:26:32;14.32;;;10.00;;
53751;SDS011;41095;53.090;6.692;2023-02-21T14:48:24;12.32;;;9.20;;
53751;SDS011;41095;53.090;6.692;2023-02-21T14:51:27;14.35;;;10.68;;
53751;SDS011;41095;53.090;6.692;2023-02-21T15:05:25;15.98;;;11.35;;
53751;SDS011;41095;53.090;6.692;2023-02-21T15:08:13;15.60;;;11.02;;
53751;SDS011;41095;53.090;6.692;2023-02-21T15:10:46;17.25;;;11.75;;
53751;SDS011;41095;53.090;6.692;2023-02-21T15:13:26;18.05;;;11.50;;
53751;SDS011;41095;53.090;6.692;2023-02-21T15:15:58;16.25;;;10.10;;
53751;SDS011;41095;53.090;6.692;2023-02-21T15:18:36;17.55;;;11.30;;
53751;SDS011;41095;53.090;6.692;2023-02-21T15:23:43;16.50;;;10.52;;
53751;SDS011;41095;53.090;6.692;2023-02-21T15:26:21;16.27;;;10.30;;
53751;SDS011;41095;53.090;6.692;2023-02-21T15:31:32;20.63;;;13.77;;
53751;SDS011;41095;53.090;6.692;2023-02-21T15:34:04;19.00;;;13.73;;
53751;SDS011;41095;53.090;6.692;2023-02-21T15:36:30;17.52;;;13.18;;
53751;SDS011;41095;53.090;6.692;2023-02-21T15:39:02;18.73;;;12.30;;
53751;SDS011;41095;53.090;6.692;2023-02-21T15:41:37;17.05;;;10.95;;
53751;SDS011;41095;53.090;6.692;2023-02-21T15:44:14;20.42;;;14.43;;
53751;SDS011;41095;53.090;6.692;2023-02-21T15:46:47;21.40;;;14.50;;
53751;SDS011;41095;53.090;6.692;2023-02-21T15:49:19;21.95;;;14.15;;
53751;SDS011;41095;53.090;6.692;2023-02-21T15:52:34;20.00;;;12.57;;
53751;SDS011;41095;53.090;6.692;2023-02-21T15:58:29;19.90;;;13.82;;
53751;SDS011;41095;53.090;6.692;2023-02-21T16:00:30;19.10;;;12.98;;
53751;SDS011;41095;53.090;6.692;2023-02-21T16:14:29;20.15;;;13.60;;
53751;SDS011;41095;53.090;6.692;2023-02-21T16:19:48;21.08;;;13.88;;
53751;SDS011;41095;53.090;6.692;2023-02-21T16:24:48;22.23;;;13.50;;
53751;SDS011;41095;53.090;6.692;2023-02-21T16:27:15;20.67;;;13.93;;
53751;SDS011;41095;53.090;6.692;2023-02-21T16:29:42;22.05;;;15.18;;
53751;SDS011;41095;53.090;6.692;2023-02-21T16:32:17;24.42;;;16.17;;
53751;SDS011;41095;53.090;6.692;2023-02-21T16:34:44;19.42;;;13.30;;
53751;SDS011;41095;53.090;6.692;2023-02-21T16:37:12;21.35;;;14.20;;
53751;SDS011;41095;53.090;6.692;2023-02-21T16:39:38;19.75;;;14.32;;
53751;SDS011;41095;53.090;6.692;2023-02-21T16:42:05;22.90;;;15.52;;
53751;SDS011;41095;53.090;6.692;2023-02-21T16:44:31;21.60;;;15.15;;
53751;SDS011;41095;53.090;6.692;2023-02-21T16:46:57;18.13;;;13.60;;
53751;SDS011;41095;53.090;6.692;2023-02-21T16:49:23;23.75;;;15.65;;
53751;SDS011;41095;53.090;6.692;2023-02-21T16:51:49;19.75;;;13.77;;
53751;SDS011;41095;53.090;6.692;2023-02-21T16:54:15;23.65;;;15.52;;
53751;SDS011;41095;53.090;6.692;2023-02-21T16:56:41;20.90;;;13.88;;
53751;SDS011;41095;53.090;6.692;2023-02-21T16:59:10;22.40;;;14.43;;
53751;SDS011;41095;53.090;6.692;2023-02-21T17:01:38;21.33;;;14.50;;
53751;SDS011;41095;53.090;6.692;2023-02-21T17:04:04;17.42;;;11.77;;
53751;SDS011;41095;53.090;6.692;2023-02-21T17:06:57;20.17;;;14.30;;
53751;SDS011;41095;53.090;6.692;2023-02-21T17:09:28;17.85;;;11.15;;
53751;SDS011;41095;53.090;6.692;2023-02-21T17:11:58;17.60;;;12.45;;
53751;SDS011;41095;53.090;6.692;2023-02-21T17:14:24;19.17;;;12.15;;
53751;SDS011;41095;53.090;6.692;2023-02-21T17:16:50;18.17;;;14.30;;
53751;SDS011;41095;53.090;6.692;2023-02-21T17:19:17;23.05;;;16.40;;
53751;SDS011;41095;53.090;6.692;2023-02-21T17:21:45;23.10;;;15.73;;
53751;SDS011;41095;53.090;6.692;2023-02-21T17:24:11;16.02;;;11.82;;
53751;SDS011;41095;53.090;6.692;2023-02-21T17:26:38;24.05;;;15.40;;
53751;SDS011;41095;53.090;6.692;2023-02-21T17:29:04;20.27;;;13.52;;
53751;SDS011;41095;53.090;6.692;2023-02-21T17:31:31;20.90;;;13.73;;
53751;SDS011;41095;53.090;6.692;2023-02-21T17:33:57;20.08;;;14.48;;
53751;SDS011;41095;53.090;6.692;2023-02-21T17:36:25;18.15;;;13.18;;
53751;SDS011;41095;53.090;6.692;2023-02-21T17:38:51;24.95;;;15.38;;
53751;SDS011;41095;53.090;6.692;2023-02-21T17:41:17;26.55;;;15.95;;
53751;SDS011;41095;53.090;6.692;2023-02-21T17:43:44;18.92;;;12.48;;
53751;SDS011;41095;53.090;6.692;2023-02-21T17:46:11;21.95;;;13.95;;
53751;SDS011;41095;53.090;6.692;2023-02-21T17:48:39;16.40;;;11.70;;
53751;SDS011;41095;53.090;6.692;2023-02-21T17:51:05;21.70;;;12.65;;
53751;SDS011;41095;53.090;6.692;2023-02-21T17:53:32;18.42;;;13.07;;
53751;SDS011;41095;53.090;6.692;2023-02-21T17:55:57;24.70;;;17.40;;
53751;SDS011;41095;53.090;6.692;2023-02-21T17:58:26;23.77;;;15.63;;
53751;SDS011;41095;53.090;6.692;2023-02-21T18:00:54;26.40;;;17.63;;
53751;SDS011;41095;53.090;6.692;2023-02-21T18:03:21;22.65;;;14.98;;
53751;SDS011;41095;53.090;6.692;2023-02-21T18:05:47;24.95;;;18.50;;
53751;SDS011;41095;53.090;6.692;2023-02-21T18:08:13;22.30;;;15.35;;
53751;SDS011;41095;53.090;6.692;2023-02-21T18:10:40;22.50;;;14.73;;
53751;SDS011;41095;53.090;6.692;2023-02-21T18:13:10;25.65;;;18.23;;
53751;SDS011;41095;53.090;6.692;2023-02-21T18:15:37;30.13;;;17.83;;
53751;SDS011;41095;53.090;6.692;2023-02-21T18:18:02;30.25;;;19.92;;
53751;SDS011;41095;53.090;6.692;2023-02-21T18:20:29;30.50;;;19.17;;
53751;SDS011;41095;53.090;6.692;2023-02-21T18:22:56;27.10;;;16.77;;
53751;SDS011;41095;53.090;6.692;2023-02-21T18:25:22;26.95;;;16.48;;
53751;SDS011;41095;53.090;6.692;2023-02-21T18:27:48;28.30;;;17.75;;
53751;SDS011;41095;53.090;6.692;2023-02-21T18:30:15;30.95;;;20.85;;
53751;SDS011;41095;53.090;6.692;2023-02-21T18:32:42;29.40;;;19.70;;
53751;SDS011;41095;53.090;6.692;2023-02-21T18:35:09;35.50;;;22.30;;